createdAt,value
2023-09-27T00:00:09.343Z,92.55
2023-09-27T00:02:36.785Z,92.75
2023-09-27T00:05:08.266Z,92.53
2023-09-27T00:07:36.422Z,93.46
2023-09-27T00:10:07.174Z,93.57
2023-09-27T00:12:34.322Z,93.27
2023-09-27T00:15:04.152Z,93.81
2023-09-27T00:17:33.948Z,93.81
2023-09-27T00:20:06.515Z,94.07
2023-09-27T00:22:33.886Z,93.97
2023-09-27T00:25:05.912Z,93.90
2023-09-27T00:27:33.427Z,93.52
2023-09-27T00:30:00.786Z,93.91
2023-09-27T00:32:27.764Z,93.50
2023-09-27T00:34:54.517Z,93.99
2023-09-27T00:37:26.216Z,93.73
2023-09-27T00:39:52.969Z,93.49
2023-09-27T00:42:19.809Z,93.11
2023-09-27T00:44:46.812Z,93.16
2023-09-27T00:47:15.318Z,93.54
2023-09-27T00:49:42.113Z,93.10
2023-09-27T00:52:09.532Z,93.00
2023-09-27T00:54:36.797Z,93.17
2023-09-27T00:57:07.046Z,93.87
2023-09-27T00:59:34.675Z,93.82
2023-09-27T01:02:01.516Z,93.43
2023-09-27T01:04:28.536Z,93.79
2023-09-27T01:06:57.617Z,93.41
2023-09-27T01:09:24.619Z,92.85
2023-09-27T01:11:51.662Z,92.82
2023-09-27T01:14:18.509Z,92.72
2023-09-27T01:16:45.250Z,92.65
2023-09-27T01:19:12.102Z,93.03
2023-09-27T01:21:38.828Z,93.05
2023-09-27T01:24:07.720Z,92.65
2023-09-27T01:26:38.071Z,92.57
2023-09-27T01:29:09.671Z,92.84
2023-09-27T01:31:38.659Z,92.79
2023-09-27T01:34:05.520Z,92.60
2023-09-27T01:36:34.533Z,92.92
2023-09-27T01:39:01.223Z,92.74
2023-09-27T01:41:27.951Z,92.99
2023-09-27T01:43:54.850Z,92.67
2023-09-27T01:46:21.566Z,92.78
2023-09-27T01:48:49.555Z,93.06
2023-09-27T01:51:18.605Z,92.90
2023-09-27T01:53:45.659Z,92.59
2023-09-27T01:56:12.410Z,92.81
2023-09-27T01:58:39.140Z,93.02
2023-09-27T02:01:06.028Z,93.04
2023-09-27T02:03:33.042Z,92.96
2023-09-27T02:05:59.909Z,93.67
2023-09-27T02:08:29.152Z,93.47
2023-09-27T02:10:55.932Z,93.17
2023-09-27T02:13:22.719Z,93.82
2023-09-27T02:15:49.539Z,94.12
2023-09-27T02:18:16.333Z,94.29
2023-09-27T02:20:43.080Z,93.77
2023-09-27T02:23:11.894Z,93.51
2023-09-27T02:25:38.824Z,93.50
2023-09-27T02:28:06.080Z,93.60
2023-09-27T02:30:33.643Z,94.05
2023-09-27T02:33:00.427Z,94.07
2023-09-27T02:35:27.270Z,93.86
2023-09-27T02:37:54.217Z,94.27
2023-09-27T02:40:23.253Z,94.03
2023-09-27T02:42:50.032Z,94.11
2023-09-27T02:45:16.938Z,94.22
2023-09-27T02:47:47.899Z,93.81
2023-09-27T02:50:16.333Z,93.58
2023-09-27T02:52:45.260Z,93.47
2023-09-27T02:55:12.467Z,93.33
2023-09-27T02:57:39.602Z,93.41
2023-09-27T03:00:10.013Z,93.68
2023-09-27T03:02:38.405Z,93.74
2023-09-27T03:05:09.089Z,93.94
2023-09-27T03:07:36.357Z,94.19
2023-09-27T03:10:10.008Z,94.03
2023-09-27T03:12:36.841Z,93.82
2023-09-27T03:15:04.419Z,93.49
2023-09-27T03:17:33.482Z,93.39
2023-09-27T03:20:00.452Z,93.84
2023-09-27T03:22:30.007Z,94.21
2023-09-27T03:24:56.750Z,94.75
2023-09-27T03:27:23.438Z,94.43
2023-09-27T03:29:50.234Z,94.92
2023-09-27T03:32:16.976Z,94.66
2023-09-27T03:34:43.728Z,95.06
2023-09-27T03:37:12.543Z,95.49
2023-09-27T03:39:39.285Z,95.60
2023-09-27T03:42:06.156Z,94.77
2023-09-27T03:44:33.050Z,95.08
2023-09-27T03:46:59.981Z,94.96
2023-09-27T03:49:27.142Z,95.37
2023-09-27T03:51:58.636Z,95.13
2023-09-27T03:54:25.309Z,94.74
2023-09-27T03:56:52.400Z,95.35
2023-09-27T03:59:19.574Z,95.17
2023-09-27T04:01:48.695Z,95.07
2023-09-27T04:04:18.203Z,95.64
2023-09-27T04:06:48.003Z,96.14
2023-09-27T04:09:14.709Z,95.62
2023-09-27T04:11:41.468Z,95.96
2023-09-27T04:14:08.671Z,96.01
2023-09-27T04:16:35.441Z,96.27
2023-09-27T04:19:02.170Z,96.43
2023-09-27T04:21:29.966Z,96.39
2023-09-27T04:23:57.946Z,96.87
2023-09-27T04:26:28.093Z,96.76
2023-09-27T04:28:55.211Z,96.43
2023-09-27T04:31:25.199Z,96.66
2023-09-27T04:33:52.701Z,97.04
2023-09-27T04:36:22.093Z,96.70
2023-09-27T04:38:50.506Z,96.48
2023-09-27T04:41:19.134Z,96.60
2023-09-27T04:43:48.142Z,96.37
2023-09-27T04:46:15.683Z,96.48
2023-09-27T04:48:42.415Z,96.48
2023-09-27T04:51:09.993Z,96.26
2023-09-27T04:53:39.913Z,96.30
2023-09-27T04:56:07.863Z,96.07
2023-09-27T04:58:37.705Z,96.30
2023-09-27T05:01:07.607Z,96.01
2023-09-27T05:03:35.048Z,96.06
2023-09-27T05:06:02.057Z,95.92
2023-09-27T05:08:28.929Z,96.07
2023-09-27T05:10:57.546Z,95.93
2023-09-27T05:13:24.491Z,96.40
2023-09-27T05:15:54.040Z,96.48
2023-09-27T05:18:24.005Z,96.23
2023-09-27T05:20:51.019Z,96.77
2023-09-27T05:23:20.084Z,96.75
2023-09-27T05:25:47.774Z,96.67
2023-09-27T05:28:14.506Z,96.56
2023-09-27T05:30:43.201Z,96.52
2023-09-27T05:33:09.949Z,97.13
2023-09-27T05:35:36.769Z,97.23
2023-09-27T05:38:04.570Z,97.61
2023-09-27T05:40:32.595Z,97.42
2023-09-27T05:43:00.701Z,96.99
2023-09-27T05:45:31.485Z,97.69
2023-09-27T05:48:00.666Z,97.84
2023-09-27T05:50:27.407Z,97.87
2023-09-27T05:52:54.148Z,97.81
2023-09-27T05:55:21.375Z,98.05
2023-09-27T05:57:48.050Z,98.27
2023-09-27T06:00:27.576Z,97.86
2023-09-27T06:02:54.685Z,97.82
2023-09-27T06:05:22.010Z,97.92
2023-09-27T06:07:49.798Z,97.95
2023-09-27T06:10:17.553Z,97.98
2023-09-27T06:12:44.418Z,98.08
2023-09-27T06:15:12.049Z,98.51
2023-09-27T06:17:41.459Z,97.97
2023-09-27T06:20:09.976Z,98.53
2023-09-27T06:22:36.757Z,98.15
2023-09-27T06:25:03.917Z,98.38
2023-09-27T06:27:30.612Z,98.59
2023-09-27T06:30:00.446Z,99.33
2023-09-27T06:32:29.335Z,100.00
2023-09-27T06:34:56.591Z,100.00
2023-09-27T06:37:25.341Z,100.00
2023-09-27T06:39:52.105Z,100.00
2023-09-27T06:42:20.533Z,100.00
2023-09-27T06:44:47.408Z,100.00
2023-09-27T06:47:16.504Z,100.00
2023-09-27T06:49:43.247Z,100.00
2023-09-27T06:52:09.966Z,100.00
2023-09-27T06:54:36.684Z,100.00
2023-09-27T06:57:06.644Z,100.00
2023-09-27T06:59:36.051Z,99.94
2023-09-27T07:02:05.302Z,99.37
2023-09-27T07:04:32.019Z,98.97
2023-09-27T07:06:58.928Z,98.31
2023-09-27T07:09:25.710Z,97.42
2023-09-27T07:11:52.389Z,96.97
2023-09-27T07:14:21.271Z,96.52
2023-09-27T07:17:00.794Z,96.19
2023-09-27T07:19:32.811Z,95.34
2023-09-27T07:22:02.531Z,94.81
2023-09-27T07:24:31.635Z,94.41
2023-09-27T07:27:00.903Z,93.76
2023-09-27T07:29:28.680Z,92.72
2023-09-27T07:31:56.075Z,92.21
2023-09-27T07:34:22.779Z,91.65
2023-09-27T07:36:49.541Z,91.36
2023-09-27T07:39:17.112Z,91.18
2023-09-27T07:41:48.804Z,91.18
2023-09-27T07:44:19.308Z,91.29
2023-09-27T07:46:46.091Z,91.07
2023-09-27T07:49:13.007Z,91.10
2023-09-27T07:51:39.809Z,90.69
2023-09-27T07:54:09.666Z,90.30
2023-09-27T07:56:41.640Z,89.52
2023-09-27T07:59:08.490Z,89.62
2023-09-27T08:01:35.392Z,89.22
2023-09-27T08:04:11.935Z,88.46
2023-09-27T08:06:39.891Z,88.43
2023-09-27T08:09:20.381Z,88.33
2023-09-27T08:11:56.981Z,87.98
2023-09-27T08:14:23.777Z,87.00
2023-09-27T08:16:54.974Z,86.66
2023-09-27T08:19:25.872Z,87.16
2023-09-27T08:21:52.586Z,87.17
2023-09-27T08:24:21.384Z,86.84
2023-09-27T08:26:48.713Z,87.44
2023-09-27T08:29:19.799Z,87.22
2023-09-27T08:31:49.046Z,87.38
2023-09-27T08:34:16.238Z,87.03
2023-09-27T08:36:42.985Z,86.93
2023-09-27T08:39:10.847Z,86.89
2023-09-27T08:41:39.437Z,86.32
2023-09-27T08:44:07.200Z,86.64
2023-09-27T08:46:37.610Z,86.28
2023-09-27T08:49:10.001Z,86.55
2023-09-27T08:51:40.063Z,86.33
2023-09-27T08:54:06.841Z,86.57
2023-09-27T08:56:34.268Z,86.76
2023-09-27T08:59:04.823Z,87.15
2023-09-27T09:01:34.711Z,86.55
2023-09-27T09:04:01.672Z,85.05
2023-09-27T09:06:29.381Z,83.66
2023-09-27T09:08:58.440Z,81.63
2023-09-27T09:11:26.482Z,80.01
2023-09-27T09:14:06.565Z,79.02
2023-09-27T09:16:41.585Z,77.71
2023-09-27T09:21:57.118Z,75.59
2023-09-27T09:24:24.052Z,74.11
2023-09-27T09:27:06.013Z,73.34
2023-09-27T09:29:48.276Z,73.70
2023-09-27T09:32:19.706Z,75.07
2023-09-27T09:34:51.003Z,74.94
2023-09-27T09:37:20.757Z,75.68
2023-09-27T09:39:52.366Z,76.22
2023-09-27T09:42:37.768Z,75.67
2023-09-27T09:45:11.397Z,77.39
2023-09-27T09:47:43.294Z,77.78
2023-09-27T09:50:18.672Z,78.43
2023-09-27T09:52:59.885Z,78.23
2023-09-27T09:55:48.634Z,79.42
2023-09-27T09:58:43.955Z,79.48
2023-09-27T10:01:13.998Z,79.41
2023-09-27T10:03:49.496Z,80.15
2023-09-27T10:06:40.910Z,80.30
2023-09-27T10:09:17.830Z,79.57
2023-09-27T10:11:47.926Z,79.63
2023-09-27T10:14:17.985Z,80.28
2023-09-27T10:16:46.429Z,79.28
2023-09-27T10:19:14.425Z,78.95
2023-09-27T10:22:07.960Z,78.89
2023-09-27T10:24:38.749Z,79.00
2023-09-27T10:27:05.699Z,79.03
2023-09-27T10:29:32.611Z,78.87
2023-09-27T10:32:02.299Z,79.51
2023-09-27T10:34:28.981Z,78.83
2023-09-27T10:37:17.298Z,78.72
2023-09-27T10:40:20.834Z,78.61
2023-09-27T10:42:51.314Z,77.67
2023-09-27T10:45:18.724Z,76.59
2023-09-27T10:47:50.998Z,77.15
2023-09-27T10:50:28.995Z,76.27
2023-09-27T10:52:56.524Z,76.68
2023-09-27T10:55:23.646Z,76.44
2023-09-27T10:57:50.637Z,76.24
2023-09-27T11:00:19.544Z,76.19
2023-09-27T11:02:46.263Z,75.64
2023-09-27T11:05:13.280Z,74.86
2023-09-27T11:07:47.713Z,75.00
2023-09-27T11:10:34.307Z,75.17
2023-09-27T11:13:15.725Z,75.75
2023-09-27T11:15:43.349Z,76.25
2023-09-27T11:18:11.701Z,76.49
2023-09-27T11:20:41.509Z,76.73
2023-09-27T11:23:08.619Z,77.27
2023-09-27T11:25:39.257Z,77.54
2023-09-27T11:28:06.460Z,76.90
2023-09-27T11:30:36.238Z,77.05
2023-09-27T11:33:07.415Z,76.68
2023-09-27T11:35:34.990Z,76.75
2023-09-27T11:38:14.805Z,77.04
2023-09-27T11:40:44.778Z,76.36
2023-09-27T11:43:13.672Z,77.34
2023-09-27T11:45:43.993Z,76.95
2023-09-27T11:48:11.147Z,77.20
2023-09-27T11:50:38.856Z,77.90
2023-09-27T11:53:08.368Z,77.57
2023-09-27T11:55:37.603Z,78.25
2023-09-27T11:58:04.573Z,78.30
2023-09-27T12:00:31.484Z,78.59
2023-09-27T12:02:59.153Z,79.40
2023-09-27T12:05:27.233Z,79.40
2023-09-27T12:07:54.374Z,79.65
2023-09-27T12:10:21.272Z,79.95
2023-09-27T12:12:50.902Z,80.21
2023-09-27T12:15:19.943Z,80.09
2023-09-27T12:17:49.376Z,80.33
2023-09-27T12:20:31.543Z,79.86
2023-09-27T12:23:04.145Z,79.78
2023-09-27T12:25:30.884Z,79.47
2023-09-27T12:27:59.892Z,79.88
2023-09-27T12:30:26.607Z,80.55
2023-09-27T12:32:53.762Z,80.48
2023-09-27T12:35:25.319Z,80.26
2023-09-27T12:37:56.945Z,80.72
2023-09-27T12:40:25.942Z,81.12
2023-09-27T12:42:55.164Z,80.27
2023-09-27T12:45:21.933Z,79.89
2023-09-27T12:47:48.712Z,79.97
2023-09-27T12:50:27.936Z,80.10
2023-09-27T12:52:57.721Z,80.16
2023-09-27T12:55:26.634Z,79.90
2023-09-27T12:57:53.417Z,80.15
2023-09-27T13:00:20.701Z,80.53
2023-09-27T13:02:47.613Z,80.97
2023-09-27T13:05:14.506Z,80.94
2023-09-27T13:07:44.819Z,79.95
2023-09-27T13:10:13.895Z,80.35
2023-09-27T13:12:43.906Z,79.95
2023-09-27T13:15:11.720Z,80.06
2023-09-27T13:17:41.016Z,79.65
2023-09-27T13:20:11.792Z,79.35
2023-09-27T13:22:38.708Z,79.42
2023-09-27T13:25:13.215Z,80.07
2023-09-27T13:27:40.999Z,79.72
2023-09-27T13:30:11.315Z,80.68
2023-09-27T13:32:42.992Z,81.22
2023-09-27T13:35:09.690Z,81.39
2023-09-27T13:37:36.585Z,81.13
2023-09-27T13:40:14.166Z,81.56
2023-09-27T13:42:42.275Z,80.94
2023-09-27T13:45:13.487Z,81.06
2023-09-27T13:47:40.409Z,81.50
2023-09-27T13:50:07.910Z,82.37
2023-09-27T13:52:38.049Z,81.93
2023-09-27T13:55:07.410Z,82.11
2023-09-27T13:57:34.203Z,82.11
2023-09-27T14:00:00.987Z,82.56
2023-09-27T14:02:27.826Z,82.59
2023-09-27T14:04:55.125Z,82.88
2023-09-27T14:07:22.085Z,83.31
2023-09-27T14:09:50.949Z,83.51
2023-09-27T14:12:17.698Z,84.12
2023-09-27T14:14:47.158Z,83.99
2023-09-27T14:17:13.888Z,83.95
2023-09-27T14:19:43.982Z,84.65
2023-09-27T14:22:13.139Z,84.39
2023-09-27T14:24:39.798Z,85.18
2023-09-27T14:27:09.196Z,85.08
2023-09-27T14:29:36.423Z,85.67
2023-09-27T14:32:07.415Z,85.37
2023-09-27T14:37:08.172Z,85.06
2023-09-27T14:39:39.945Z,84.50
2023-09-27T14:42:07.363Z,84.85
2023-09-27T14:44:33.977Z,85.11
2023-09-27T14:47:00.809Z,84.99
2023-09-27T14:49:31.238Z,85.04
2023-09-27T14:51:57.953Z,85.01
2023-09-27T14:54:24.677Z,85.28
2023-09-27T14:56:53.964Z,85.13
2023-09-27T14:59:22.864Z,85.64
2023-09-27T15:01:49.629Z,85.64
2023-09-27T15:04:19.174Z,86.14
2023-09-27T15:06:50.591Z,85.92
2023-09-27T15:09:19.499Z,85.89
2023-09-27T15:11:48.406Z,85.72
2023-09-27T15:14:20.353Z,85.78
2023-09-27T15:16:47.182Z,86.18
2023-09-27T15:19:16.451Z,85.90
2023-09-27T15:21:43.255Z,85.89
2023-09-27T15:24:11.126Z,86.07
2023-09-27T15:26:37.820Z,86.16
2023-09-27T15:29:04.442Z,86.31
2023-09-27T15:31:31.456Z,85.74
2023-09-27T15:33:58.374Z,86.14
2023-09-27T15:36:28.379Z,86.70
2023-09-27T15:38:55.023Z,85.97
2023-09-27T15:41:21.814Z,86.17
2023-09-27T15:43:50.974Z,86.01
2023-09-27T15:46:18.166Z,86.39
2023-09-27T15:48:45.017Z,86.32
2023-09-27T15:51:16.841Z,85.91
2023-09-27T15:53:43.671Z,85.86
2023-09-27T15:56:13.135Z,85.38
2023-09-27T15:58:40.075Z,85.71
2023-09-27T16:01:08.007Z,85.08
2023-09-27T16:03:35.850Z,85.02
2023-09-27T16:06:05.300Z,84.91
2023-09-27T16:08:32.556Z,84.66
2023-09-27T16:11:01.818Z,84.82
2023-09-27T16:13:31.493Z,84.48
2023-09-27T16:16:00.843Z,84.39
2023-09-27T16:18:27.696Z,84.24
2023-09-27T16:20:57.393Z,83.75
2023-09-27T16:23:24.149Z,83.48
2023-09-27T16:25:51.529Z,82.48
2023-09-27T16:28:19.247Z,82.21
2023-09-27T16:30:46.849Z,81.69
2023-09-27T16:33:15.971Z,81.71
2023-09-27T16:35:43.053Z,81.13
2023-09-27T16:38:12.731Z,79.88
2023-09-27T16:40:47.178Z,79.41
2023-09-27T16:43:13.874Z,79.01
2023-09-27T16:45:43.802Z,78.48
2023-09-27T16:48:10.656Z,77.79
2023-09-27T16:50:37.345Z,78.13
2023-09-27T16:53:05.653Z,77.30
2023-09-27T16:55:38.292Z,76.69
2023-09-27T16:58:06.314Z,76.12
2023-09-27T17:00:33.268Z,76.29
2023-09-27T17:03:04.851Z,75.88
2023-09-27T17:05:31.854Z,75.93
2023-09-27T17:07:58.988Z,75.16
2023-09-27T17:10:25.942Z,75.05
2023-09-27T17:12:52.705Z,75.14
2023-09-27T17:15:20.880Z,74.92
2023-09-27T17:17:47.958Z,75.20
2023-09-27T17:20:14.889Z,75.60
2023-09-27T17:22:44.436Z,75.63
2023-09-27T17:25:12.229Z,75.68
2023-09-27T17:27:39.010Z,75.44
2023-09-27T17:30:08.983Z,76.16
2023-09-27T17:32:36.900Z,75.84
2023-09-27T17:35:06.808Z,76.51
2023-09-27T17:37:33.713Z,76.44
2023-09-27T17:40:01.936Z,76.74
2023-09-27T17:42:28.846Z,77.04
2023-09-27T17:44:57.999Z,77.15
2023-09-27T17:47:24.698Z,77.15
2023-09-27T17:49:51.428Z,77.43
2023-09-27T17:52:20.284Z,78.23
2023-09-27T17:54:49.470Z,78.14
2023-09-27T17:57:18.601Z,78.57
2023-09-27T17:59:46.646Z,78.96
2023-09-27T18:02:13.760Z,79.22
2023-09-27T18:04:40.910Z,79.43
2023-09-27T18:07:07.542Z,80.64
2023-09-27T18:09:37.686Z,81.18
2023-09-27T18:12:05.246Z,82.44
2023-09-27T18:14:31.965Z,82.06
2023-09-27T18:17:00.846Z,81.19
2023-09-27T18:19:27.589Z,80.04
2023-09-27T18:21:54.393Z,79.33
2023-09-27T18:24:21.114Z,78.86
2023-09-27T18:26:47.763Z,78.26
2023-09-27T18:29:14.684Z,77.91
2023-09-27T18:31:43.295Z,78.04
2023-09-27T18:34:10.401Z,78.33
2023-09-27T18:36:37.052Z,78.33
2023-09-27T18:39:06.171Z,78.17
2023-09-27T18:41:35.178Z,78.25
2023-09-27T18:44:06.809Z,78.40
2023-09-27T18:46:36.654Z,78.21
2023-09-27T18:49:03.827Z,77.93
2023-09-27T18:51:30.543Z,77.71
2023-09-27T18:53:59.442Z,77.82
2023-09-27T18:56:26.625Z,77.69
2023-09-27T18:58:55.895Z,77.59
2023-09-27T19:01:24.975Z,77.68
2023-09-27T19:03:52.440Z,77.97
2023-09-27T19:06:19.825Z,78.19
2023-09-27T19:08:47.173Z,78.70
2023-09-27T19:11:21.137Z,79.00
2023-09-27T19:13:48.513Z,78.84
2023-09-27T19:16:15.310Z,79.10
2023-09-27T19:18:43.674Z,79.03
2023-09-27T19:21:11.574Z,79.10
2023-09-27T19:23:40.371Z,79.12
2023-09-27T19:26:09.175Z,78.98
2023-09-27T19:28:37.462Z,78.76
2023-09-27T19:31:04.590Z,78.61
2023-09-27T19:33:31.550Z,78.63
2023-09-27T19:36:01.142Z,79.26
2023-09-27T19:38:29.947Z,78.63
2023-09-27T19:40:56.744Z,78.55
2023-09-27T19:43:24.880Z,78.73
2023-09-27T19:45:54.600Z,78.98
2023-09-27T19:48:26.745Z,78.87
2023-09-27T19:50:53.340Z,79.49
2023-09-27T19:53:20.100Z,79.08
2023-09-27T19:55:47.702Z,79.43
2023-09-27T19:58:17.518Z,79.24
2023-09-27T20:00:46.199Z,79.43
2023-09-27T20:03:14.054Z,79.49
2023-09-27T20:05:40.797Z,79.79
2023-09-27T20:08:07.792Z,79.52
2023-09-27T20:10:37.847Z,79.72
2023-09-27T20:13:07.719Z,79.63
2023-09-27T20:15:37.417Z,80.14
2023-09-27T20:18:04.752Z,80.00
2023-09-27T20:20:31.744Z,80.08
2023-09-27T20:23:01.074Z,80.62
2023-09-27T20:25:30.103Z,80.40
2023-09-27T20:28:00.065Z,80.77
2023-09-27T20:30:26.811Z,80.79
2023-09-27T20:32:54.232Z,80.53
2023-09-27T20:35:24.870Z,80.71
2023-09-27T20:37:51.783Z,80.75
2023-09-27T20:40:18.744Z,80.59
2023-09-27T20:42:55.027Z,80.57
2023-09-27T20:45:22.354Z,80.73
2023-09-27T20:47:52.749Z,80.51
2023-09-27T20:50:19.565Z,80.93
2023-09-27T20:52:46.201Z,80.67
2023-09-27T20:55:12.941Z,80.82
2023-09-27T20:57:40.359Z,81.05
2023-09-27T21:00:13.382Z,80.85
2023-09-27T21:02:42.839Z,81.20
2023-09-27T21:05:09.631Z,81.31
2023-09-27T21:07:37.419Z,81.49
2023-09-27T21:10:05.054Z,80.95
2023-09-27T21:12:31.698Z,81.20
2023-09-27T21:14:58.522Z,81.01
2023-09-27T21:17:28.261Z,81.08
2023-09-27T21:19:57.809Z,80.63
2023-09-27T21:22:26.689Z,81.25
2023-09-27T21:24:55.815Z,80.68
2023-09-27T21:27:22.442Z,80.78
2023-09-27T21:29:51.476Z,80.94
2023-09-27T21:32:20.489Z,81.12
2023-09-27T21:34:49.155Z,80.92
2023-09-27T21:37:16.429Z,81.01
2023-09-27T21:39:43.122Z,81.23
2023-09-27T21:42:10.097Z,81.54
2023-09-27T21:44:38.988Z,81.00
2023-09-27T21:47:05.614Z,81.37
2023-09-27T21:49:34.512Z,81.25
2023-09-27T21:52:01.501Z,81.16
2023-09-27T21:54:28.218Z,81.26
2023-09-27T21:56:57.315Z,81.16
2023-09-27T21:59:23.978Z,81.40
2023-09-27T22:01:50.661Z,81.34
2023-09-27T22:04:17.606Z,81.36
2023-09-27T22:06:46.496Z,81.65
2023-09-27T22:09:18.591Z,81.28
2023-09-27T22:11:46.215Z,81.35
2023-09-27T22:14:13.006Z,81.14
2023-09-27T22:16:39.921Z,81.18
2023-09-27T22:19:13.256Z,80.81
2023-09-27T22:21:44.156Z,80.80
2023-09-27T22:24:13.886Z,80.65
2023-09-27T22:26:42.241Z,80.78
2023-09-27T22:29:11.406Z,80.84
2023-09-27T22:31:39.685Z,80.66
2023-09-27T22:34:24.069Z,81.25
2023-09-27T22:36:52.288Z,81.30
2023-09-27T22:39:20.549Z,81.44
2023-09-27T22:41:49.782Z,81.21
2023-09-27T22:44:20.459Z,80.85
2023-09-27T22:46:48.847Z,80.85
2023-09-27T22:49:20.663Z,80.90
2023-09-27T22:51:50.857Z,80.82
2023-09-27T22:54:20.321Z,81.13
2023-09-27T22:56:48.878Z,81.13
2023-09-27T22:59:22.691Z,80.92
2023-09-27T23:01:56.093Z,80.79
2023-09-27T23:04:24.319Z,80.90
2023-09-27T23:07:02.856Z,80.58
2023-09-27T23:09:36.003Z,80.87
2023-09-27T23:12:18.762Z,80.81
2023-09-27T23:15:04.500Z,80.67
2023-09-27T23:17:32.092Z,80.73
2023-09-27T23:20:01.858Z,81.09
2023-09-27T23:22:48.634Z,80.96
2023-09-27T23:25:35.461Z,80.57
2023-09-27T23:28:04.372Z,81.15
2023-09-27T23:30:31.161Z,81.11
2023-09-27T23:33:03.188Z,80.99
2023-09-27T23:35:32.968Z,81.31
2023-09-27T23:38:11.144Z,81.13
2023-09-27T23:40:42.927Z,80.72
2023-09-27T23:43:17.379Z,80.79
2023-09-27T23:45:46.745Z,80.71
2023-09-27T23:48:13.718Z,80.21
2023-09-27T23:50:41.713Z,79.95
2023-09-27T23:53:08.377Z,79.96
2023-09-27T23:55:42.452Z,79.62
2023-09-27T23:58:13.767Z,79.80
